Online since October of 2007


Active alerts


No alerts

Bigbaywx more information Bigbaywx


mount mesnard more information Mount Mesnard


visit our other weather sites:

Template documentation
and downloads

And another site


CBI


nearby metar reports

   
KSAW - Sawyer, Michigan
updated: Sep 26 2018 1:18 am
overcast  
overcast  
   wind: west 4.6 mph
wind: west 4.6 mph
temperature: 46.4°F
wind chill: 44.6°F
dew point: 44.6°F
humidity: 93%
barometer: 29.82 inHg
clouds: overcast
visibility: 10 mi
cloud details: overcast 427 m
KSAW 260518Z AUTO 28004KT 10SM OVC014 08/07 A2982 RMK AO2 T00800070
KESC - Escanaba, Michigan
updated: Sep 26 2018 1:23 am
overcast  
overcast  
   wind: wnw 3.5 mph
wind: wnw 3.5 mph
temperature: 48.2°F
wind chill: 46.4°F
dew point: 48.2°F
humidity: 100%
barometer: 29.84 inHg
clouds: overcast
visibility: 10 mi
cloud details: overcast 244 m
KESC 260523Z AUTO 30003KT 10SM OVC008 09/09 A2984 RMK AO2 RAE12 CIG 007V013 PNO $
KIMT - Iron Mountain, MI
updated: Sep 26 2018 12:54 am
overcast  
overcast  
   wind: wnw 8.1 mph
wind: wnw 8.1 mph
temperature: 48.2°F
wind chill: 44.6°F
dew point: 46.4°F
humidity: 94%
barometer: 29.85 inHg
clouds: overcast
visibility: 10 mi
cloud details: mostly cloudy 518 m,
mostly cloudy 823 m,
overcast 1981 m
KIMT 260454Z AUTO 29007KT 10SM BKN017 BKN027 OVC065 09/08 A2985 RMK AO2 SLP110 T00940078
KGRB - Green Bay, WI
updated: Sep 26 2018 12:53 am
overcast  
overcast  
   wind: wnw 11.5 mph<br />Gust to 11.5 mph
wind: wnw 11.5 mph
Gust to 11.5 mph
temperature: 55.4°F
dew point: 51.8°F
humidity: 88%
barometer: 29.89 inHg
clouds: overcast
visibility: 10 mi
cloud details: few clouds 518 m,
mostly cloudy 671 m,
overcast 823 m
KGRB 260453Z AUTO 30010G16KT 10SM FEW017 BKN022 OVC027 13/11 A2989 RMK AO2 SLP122 T01280106
KDET - Detroit, MI
updated: Sep 26 2018 1:28 am
light rain, mostly cloudy  
light rain, mostly cloudy  
   wind: wsw 11.5 mph<br />Gust to 11.5 mph
wind: wsw 11.5 mph
Gust to 11.5 mph
temperature: 71.6°F
dew point: 68°F
humidity: 88%
barometer: 29.82 inHg
clouds: mostly cloudy
visibility: 10 mi
cloud details: partly cloudy 457 m,
mostly cloudy 1981 m,
mostly cloudy 3353 m
KDET 260528Z 25010G17KT 10SM -RA SCT015 BKN065 BKN110 22/20 A2982 RMK AO2 RAB01 P0001 T02220200
 

script developed by  Saratoga-weather.org adapted for the template by  Weerstation Leuven

you find our weather info also at:

Weather Underground

midwestern weather network

WeatherlinkIP

Citizen Weather Observer Program (CWOP)

equipment we use:

weather-station
Davis VP2

weather-program
Davis Weatherlink.Com

Davis VP2

Davis Weatherlink.Com